This is the latest recevied weather packets stored in our database for station/object K8JCL-13. If no packets are shown the sender has not sent any weather packets the latest 10 day(s).
| Time | Temp. | Humidity | Pressure | Rain* | Wind** | Luminosity | Snow |
|---|---|---|---|---|---|---|---|
| 1778013144 | 16.11° C | 98% | 1008.5 hPa | 1.78 mm | - | 85 W/m² | - |
| 1778012840 | 16.11° C | 98% | 1008.4 hPa | 3.05 mm | - | 85 W/m² | - |
| 1778012536 | 16.11° C | 98% | 1008.4 hPa | 3.05 mm | - | 64 W/m² | - |
| 1778012233 | 16.11° C | 97% | 1008.3 hPa | 4.32 mm | - | 63 W/m² | - |
| 1778011931 | 16.11° C | 97% | 1008.5 hPa | 3.05 mm | - | 58 W/m² | - |
| 1778011629 | 16.11° C | 96% | 1008.7 hPa | 4.83 mm | - | 50 W/m² | - |
| 1778011325 | 16.67° C | 95% | 1008.9 hPa | 4.32 mm | - | 56 W/m² | - |
| 1778011021 | 16.67° C | 94% | 1009.1 hPa | 4.32 mm | - | 43 W/m² | - |
| 1778010718 | 16.67° C | 92% | 1009 hPa | 3.05 mm | - | 54 W/m² | - |
| 1778010416 | 17.78° C | 88% | 1008.7 hPa | 1.27 mm | - | 48 W/m² | - |
| 1778010112 | 17.78° C | 84% | 1008.7 hPa | 0 mm | - | 24 W/m² | - |
| 1778009808 | 17.78° C | 81% | 1008.5 hPa | 0 mm | - | 21 W/m² | - |
| 1778009505 | 17.78° C | 83% | 1008.4 hPa | 0 mm | - | 22 W/m² | - |
| 1778009204 | 18.33° C | 81% | 1008.4 hPa | 0 mm | - | 23 W/m² | - |
| 1778008901 | 18.33° C | 81% | 1008.4 hPa | 0 mm | - | 24 W/m² | - |
| 1778008599 | 18.33° C | 81% | 1008.5 hPa | 0 mm | - | 33 W/m² | - |
| 1778008297 | 18.89° C | 79% | 1008.5 hPa | 0 mm | - | 31 W/m² | - |
| 1778007993 | 18.89° C | 80% | 1008.4 hPa | 0 mm | - | 42 W/m² | - |
| 1778007688 | 19.44° C | 78% | 1008.5 hPa | 0 mm | - | 56 W/m² | - |
| 1778007385 | 19.44° C | 78% | 1008.7 hPa | 0 mm | - | 73 W/m² | - |
| 1778007081 | 18.89° C | 79% | 1008.7 hPa | 0 mm | - | 176 W/m² | - |
| 1778006778 | 18.89° C | 79% | 1008.7 hPa | 0 mm | - | 107 W/m² | - |
| 1778006474 | 18.89° C | 78% | 1008.9 hPa | 0 mm | - | 118 W/m² | - |
| 1778006171 | 18.89° C | 77% | 1008.9 hPa | 0 mm | - | 83 W/m² | - |
| 1778005869 | 19.44° C | 76% | 1008.6 hPa | 0 mm | - | 46 W/m² | - |
* Rain latest hour (hover to see other rain measurements)
** Current wind speed in m/s (hover to see current wind gust speed)